Santa Barbara Municipal Airport
KSBA : now visible

Aeroporto :











RITROVATECI SU...

 
LOGIN :

Iscrizione | Disclaimer

   EN    FR    IT 

 









Sommario :    VFR   VFR Marginale   IFR   IFR Intensivo   IFR Molto Intensivo
Visibilità : 
Base nubi : 
>= 8 km
>= 3000ft
5 / 8 km
1000 / 3000 ft
1500m / 5 km
500 / 1000 ft
800 / 1500m
200 / 500 ft
< 800m
< 200 ft
Simboli :   Temporali  Nebbia  Neve Forte  Precipitazioni Forti  Vento > 20 kt






- Altitudine del aeroporto : 13 ft
- Codice IATA : SBA


KSBA - Santa Barbara Municipal

ULTIMO METAR :
  • 271953Z 24010KT 10SM CLR 21/07 A3021 RMK AO2 SLP229 T02110072

METARs OBSOLETI :
  • 271853Z 24011KT 10SM CLR 21/05 A3023 RMK AO2 SLP237 T02060050
  • 271753Z VRB03KT 10SM CLR 21/02 A3023 RMK AO2 SLP235 T02060017 10211 20106 53009

TAF KSBA
Valido dal 27 a 18 ore il 28 a 18 ore UTC


271752Z 2718/2818 36006KT P6SM SKC
FM272000 16008KT P6SM SKC
FM280100 36006KT P6SM SKC
FM281400 VRB03KT P6SM SKC



MetMap, La meteo Aeronautica in un colpo d'occhio ! - Copyright ORBIFLY Dicembre 2007 - Disclaimer

ORBIFLY MET'MAP TEAM :

Programmazione e sviluppo : Alexandra Zaïnal
Concezione : Baudouin d'Aumeries
Aiuto per la programmazione : Marc-Olivier Méhu
Supporto tecnico e logistico : Manuel Goepfert
Aiuto per la traduzione : Arnaldo La Scala

Contatto : metmap@orbifly.com




FONTI E CREDITI :

   NOAA       Earth
Advisory